Terminal Aerodrome Forecast
Issued by NWS

Home | Current Version | Previous Version | Text Only | Print | Product List | Glossary On
Versions: 1 2 3 4 5 6 7 8 9 10 11 12 13 14 15 16 17 18 19 20 21 22 23 24 25 26 27
000
FTUS41 KRLX 211300 AAA
TAFCKB
TAF AMD
KCKB 211309Z 2113/2212 VRB03KT P6SM OVC010
     FM211600 26004KT P6SM OVC015
     FM211700 27005KT P6SM -SHRA OVC025
     FM220100 31005KT 6SM -SHRA BR OVC035
     FM220200 31006KT P6SM OVC025
     FM220500 31005KT P6SM OVC015
     FM221100 31004KT P6SM OVC010=

USA.gov is the U.S. government's official web portal to all federal, state and local government web resources and services.